createdAt,value
2023-05-12T00:00:49.711Z,92.10
2023-05-12T00:03:54.317Z,92.10
2023-05-12T00:06:56.856Z,92.10
2023-05-12T00:09:59.131Z,92.10
2023-05-12T00:13:01.683Z,92.10
2023-05-12T00:16:04.546Z,92.10
2023-05-12T00:19:07.139Z,92.10
2023-05-12T00:22:09.550Z,92.10
2023-05-12T00:25:11.997Z,92.10
2023-05-12T00:28:14.370Z,92.20
2023-05-12T00:31:17.047Z,92.10
2023-05-12T00:34:19.696Z,92.10
2023-05-12T00:37:22.032Z,92.10
2023-05-12T00:40:24.340Z,92.10
2023-05-12T00:43:26.850Z,92.10
2023-05-12T00:46:29.324Z,92.20
2023-05-12T00:49:32.477Z,92.20
2023-05-12T00:52:35.389Z,92.10
2023-05-12T00:55:37.913Z,92.10
2023-05-12T00:58:41.339Z,92.10
2023-05-12T01:01:44.365Z,92.10
2023-05-12T01:04:48.191Z,92.20
2023-05-12T01:07:50.516Z,92.20
2023-05-12T01:10:53.677Z,92.20
2023-05-12T01:13:56.086Z,92.20
2023-05-12T01:17:01.984Z,92.10
2023-05-12T01:20:07.516Z,92.10
2023-05-12T01:23:10.297Z,92.20
2023-05-12T01:26:13.149Z,92.20
2023-05-12T01:29:15.989Z,92.20
2023-05-12T01:32:19.428Z,92.10
2023-05-12T01:35:21.738Z,92.10
2023-05-12T01:38:31.929Z,92.10
2023-05-12T01:41:34.193Z,92.00
2023-05-12T01:44:36.647Z,92.00
2023-05-12T01:47:38.995Z,92.10
2023-05-12T01:50:43.300Z,92.00
2023-05-12T01:53:50.843Z,92.00
2023-05-12T01:56:53.587Z,92.00
2023-05-12T01:59:56.825Z,92.00
2023-05-12T02:02:59.296Z,92.00
2023-05-12T02:06:01.869Z,92.00
2023-05-12T02:09:04.410Z,92.00
2023-05-12T02:12:07.278Z,91.90
2023-05-12T02:15:10.037Z,91.90
2023-05-12T02:18:15.519Z,91.90
2023-05-12T02:21:17.912Z,91.90
2023-05-12T02:24:21.532Z,91.80
2023-05-12T02:27:24.236Z,91.80
2023-05-12T02:30:27.466Z,91.80
2023-05-12T02:33:30.459Z,91.80
2023-05-12T02:36:33.073Z,91.70
2023-05-12T02:39:35.597Z,91.70
2023-05-12T02:42:38.727Z,91.70
2023-05-12T02:45:41.858Z,91.70
2023-05-12T02:48:44.534Z,91.70
2023-05-12T02:51:48.723Z,91.70
2023-05-12T02:54:50.972Z,91.70
2023-05-12T02:57:53.999Z,91.70
2023-05-12T03:01:06.737Z,91.80
2023-05-12T03:04:12.724Z,91.70
2023-05-12T03:07:14.972Z,91.70
2023-05-12T03:10:19.050Z,91.70
2023-05-12T03:13:22.516Z,91.70
2023-05-12T03:16:25.033Z,91.70
2023-05-12T03:19:30.119Z,91.70
2023-05-12T03:22:32.535Z,91.70
2023-05-12T03:25:35.325Z,91.70
2023-05-12T03:28:37.881Z,91.70
2023-05-12T03:31:40.538Z,91.70
2023-05-12T03:34:43.077Z,91.70
2023-05-12T03:37:45.582Z,91.70
2023-05-12T03:40:52.865Z,91.70
2023-05-12T03:43:56.362Z,91.70
2023-05-12T03:50:01.677Z,91.70
2023-05-12T03:53:05.204Z,91.70
2023-05-12T03:56:09.584Z,91.70
2023-05-12T03:59:12.279Z,91.70
2023-05-12T04:02:14.840Z,91.70
2023-05-12T04:05:17.140Z,91.70
2023-05-12T04:08:19.379Z,91.70
2023-05-12T04:11:21.568Z,91.70
2023-05-12T04:14:31.866Z,91.70
2023-05-12T04:17:42.068Z,91.80
2023-05-12T04:20:44.735Z,91.80
2023-05-12T04:23:47.139Z,91.80
2023-05-12T04:26:49.512Z,91.80
2023-05-12T04:29:52.105Z,91.80
2023-05-12T04:32:54.385Z,91.80
2023-05-12T04:35:58.399Z,91.80
2023-05-12T04:39:00.841Z,91.80
2023-05-12T04:42:03.333Z,91.80
2023-05-12T04:45:09.192Z,91.80
2023-05-12T04:48:12.068Z,91.90
2023-05-12T04:51:15.166Z,91.90
2023-05-12T04:54:17.523Z,91.90
2023-05-12T04:57:19.911Z,91.90
2023-05-12T05:00:22.449Z,91.90
2023-05-12T05:03:25.224Z,91.90
2023-05-12T05:06:28.479Z,91.90
2023-05-12T05:09:31.062Z,91.90
2023-05-12T05:12:33.480Z,91.90
2023-05-12T05:15:35.866Z,91.90
2023-05-12T05:18:38.180Z,91.80
2023-05-12T05:21:41.088Z,91.90
2023-05-12T05:24:43.463Z,91.90
2023-05-12T05:27:45.984Z,91.90
2023-05-12T05:30:48.406Z,91.90
2023-05-12T05:33:51.176Z,91.90
2023-05-12T05:36:53.799Z,91.90
2023-05-12T05:39:56.082Z,91.90
2023-05-12T05:42:58.345Z,91.90
2023-05-12T05:46:00.891Z,91.90
2023-05-12T05:49:03.184Z,91.90
2023-05-12T05:52:06.384Z,91.90
2023-05-12T05:55:09.020Z,91.90
2023-05-12T05:58:11.764Z,91.90
2023-05-12T06:01:14.213Z,91.90
2023-05-12T06:04:17.155Z,91.90
2023-05-12T06:07:20.998Z,91.90
2023-05-12T06:10:24.508Z,91.90
2023-05-12T06:13:26.942Z,91.90
2023-05-12T06:16:29.938Z,91.90
2023-05-12T06:19:32.292Z,91.90
2023-05-12T06:22:37.402Z,91.90
2023-05-12T06:25:39.666Z,92.00
2023-05-12T06:28:41.957Z,91.90
2023-05-12T06:31:44.241Z,92.00
2023-05-12T06:34:46.495Z,92.00
2023-05-12T06:37:51.188Z,92.00
2023-05-12T06:40:53.549Z,92.00
2023-05-12T06:43:56.448Z,92.00
2023-05-12T06:47:03.164Z,92.00
2023-05-12T06:50:06.068Z,92.10
2023-05-12T06:53:08.538Z,92.00
2023-05-12T06:56:11.638Z,92.00
2023-05-12T06:59:14.362Z,91.90
2023-05-12T07:02:17.301Z,92.00
2023-05-12T07:05:20.122Z,92.00
2023-05-12T07:08:22.531Z,92.00
2023-05-12T07:11:24.838Z,92.00
2023-05-12T07:14:27.235Z,92.00
2023-05-12T07:17:29.660Z,92.00
2023-05-12T07:20:31.926Z,92.00
2023-05-12T07:23:35.077Z,92.00
2023-05-12T07:26:37.803Z,92.00
2023-05-12T07:29:40.101Z,92.00
2023-05-12T07:32:43.230Z,92.00
2023-05-12T07:35:46.798Z,91.90
2023-05-12T07:38:49.160Z,92.00
2023-05-12T07:41:53.123Z,92.00
2023-05-12T07:44:55.357Z,91.90
2023-05-12T07:47:57.693Z,91.90
2023-05-12T07:51:00.001Z,92.00
2023-05-12T07:54:02.323Z,91.90
2023-05-12T07:57:04.889Z,91.90
2023-05-12T08:00:08.126Z,91.90
2023-05-12T08:03:16.799Z,91.90
2023-05-12T08:06:19.365Z,91.90
2023-05-12T08:09:21.668Z,91.90
2023-05-12T08:12:23.974Z,91.90
2023-05-12T08:15:26.193Z,92.00
2023-05-12T08:18:28.818Z,91.90
2023-05-12T08:21:32.007Z,91.90
2023-05-12T08:24:34.262Z,91.90
2023-05-12T08:27:36.636Z,91.90
2023-05-12T08:30:39.353Z,91.90
2023-05-12T08:33:41.666Z,91.90
2023-05-12T08:36:44.120Z,91.90
2023-05-12T08:39:46.616Z,91.90
2023-05-12T08:43:06.148Z,91.90
2023-05-12T08:46:09.067Z,91.90
2023-05-12T08:49:16.716Z,91.90
2023-05-12T08:52:22.405Z,92.00
2023-05-12T08:55:30.829Z,91.90
2023-05-12T08:58:41.723Z,92.00
2023-05-12T09:01:47.519Z,91.90
2023-05-12T09:04:51.528Z,91.90
2023-05-12T09:08:07.177Z,92.00
2023-05-12T09:11:12.567Z,92.20
2023-05-12T09:14:19.455Z,92.00
2023-05-12T09:17:21.889Z,91.90
2023-05-12T09:20:31.547Z,91.90
2023-05-12T09:23:34.138Z,91.90
2023-05-12T09:26:51.785Z,91.90
2023-05-12T09:29:59.332Z,91.80
2023-05-12T09:33:12.837Z,91.80
2023-05-12T09:36:22.950Z,91.80
2023-05-12T09:39:25.988Z,91.80
2023-05-12T09:42:30.691Z,91.80
2023-05-12T09:45:39.376Z,91.80
2023-05-12T09:48:41.920Z,91.80
2023-05-12T09:51:44.171Z,91.70
2023-05-12T09:54:48.589Z,91.70
2023-05-12T09:57:53.790Z,91.70
2023-05-12T10:04:07.769Z,91.60
2023-05-12T10:07:13.309Z,91.70
2023-05-12T10:10:19.747Z,91.60
2023-05-12T10:13:23.166Z,91.60
2023-05-12T10:16:30.150Z,91.60
2023-05-12T10:19:33.388Z,91.60
2023-05-12T10:22:38.328Z,91.60
2023-05-12T10:25:44.408Z,91.60
2023-05-12T10:28:47.382Z,91.60
2023-05-12T10:31:50.177Z,91.60
2023-05-12T10:34:52.640Z,91.60
2023-05-12T10:37:54.874Z,91.90
2023-05-12T10:41:01.391Z,91.50
2023-05-12T10:44:03.800Z,91.50
2023-05-12T10:47:15.672Z,91.50
2023-05-12T10:50:28.048Z,91.50
2023-05-12T10:53:48.708Z,91.50
2023-05-12T10:56:53.221Z,91.50
2023-05-12T11:00:01.060Z,91.40
2023-05-12T11:06:19.887Z,91.50
2023-05-12T11:09:22.491Z,91.40
2023-05-12T11:12:29.059Z,91.40
2023-05-12T11:15:31.690Z,91.40
2023-05-12T11:18:34.026Z,91.40
2023-05-12T11:21:37.369Z,91.40
2023-05-12T11:24:41.570Z,91.40
2023-05-12T11:27:53.701Z,91.30
2023-05-12T11:30:56.299Z,91.70
2023-05-12T11:34:12.740Z,91.30
2023-05-12T11:37:15.831Z,91.30
2023-05-12T11:40:20.385Z,91.30
2023-05-12T11:43:22.899Z,91.30
2023-05-12T11:46:31.418Z,91.30
2023-05-12T11:49:35.005Z,91.30
2023-05-12T11:52:37.267Z,91.30
2023-05-12T11:55:51.760Z,91.40
2023-05-12T11:58:58.369Z,91.30
2023-05-12T12:02:02.702Z,91.30
2023-05-12T12:05:07.881Z,91.30
2023-05-12T12:08:16.048Z,91.40
2023-05-12T12:11:19.676Z,91.30
2023-05-12T12:14:22.706Z,91.30
2023-05-12T12:17:31.066Z,91.30
2023-05-12T12:20:33.482Z,91.30
2023-05-12T12:23:49.978Z,91.30
2023-05-12T12:26:53.480Z,91.30
2023-05-12T12:29:55.874Z,91.30
2023-05-12T12:32:58.425Z,91.30
2023-05-12T12:36:00.897Z,91.30
2023-05-12T12:39:04.532Z,91.60
2023-05-12T12:42:07.113Z,91.30
2023-05-12T12:45:10.212Z,91.30
2023-05-12T12:48:12.602Z,91.30
2023-05-12T12:51:15.372Z,91.20
2023-05-12T12:54:17.580Z,91.30
2023-05-12T12:57:21.215Z,91.30
2023-05-12T13:00:24.070Z,91.20
2023-05-12T13:03:26.427Z,91.20
2023-05-12T13:06:29.478Z,91.20
2023-05-12T13:09:32.116Z,91.20
2023-05-12T13:12:34.724Z,91.20
2023-05-12T13:15:37.046Z,91.20
2023-05-12T13:18:39.736Z,91.20
2023-05-12T13:21:42.281Z,91.20
2023-05-12T13:24:44.737Z,91.20
2023-05-12T13:27:46.984Z,91.20
2023-05-12T13:30:49.486Z,91.20
2023-05-12T13:33:52.107Z,91.20
2023-05-12T13:36:54.478Z,91.20
2023-05-12T13:39:57.026Z,91.20
2023-05-12T13:42:59.664Z,91.20
2023-05-12T13:46:02.071Z,91.20
2023-05-12T13:49:04.339Z,91.20
2023-05-12T13:52:07.181Z,91.20
2023-05-12T13:55:10.980Z,91.10
2023-05-12T13:58:16.919Z,91.10
2023-05-12T14:01:19.249Z,91.20
2023-05-12T14:04:21.582Z,91.10
2023-05-12T14:07:23.908Z,91.10
2023-05-12T14:10:26.104Z,91.10
2023-05-12T14:13:28.459Z,91.10
2023-05-12T14:16:30.922Z,91.10
2023-05-12T14:19:33.278Z,91.10
2023-05-12T14:22:36.440Z,91.10
2023-05-12T14:25:38.774Z,91.10
2023-05-12T14:28:41.086Z,91.00
2023-05-12T14:31:43.449Z,91.00
2023-05-12T14:34:45.860Z,91.00
2023-05-12T14:37:48.150Z,91.00
2023-05-12T14:40:50.455Z,91.00
2023-05-12T14:43:52.729Z,91.00
2023-05-12T14:46:55.032Z,91.00
2023-05-12T14:49:57.280Z,91.00
2023-05-12T14:52:59.565Z,91.00
2023-05-12T14:56:02.188Z,91.00
2023-05-12T14:59:04.538Z,91.00
2023-05-12T15:02:07.805Z,91.00
2023-05-12T15:05:11.370Z,91.00
2023-05-12T15:08:13.727Z,91.00
2023-05-12T15:11:16.197Z,91.00
2023-05-12T15:14:18.685Z,91.00
2023-05-12T15:17:20.864Z,91.00
2023-05-12T15:20:23.367Z,91.00
2023-05-12T15:23:25.752Z,91.00
2023-05-12T15:26:33.591Z,91.00
2023-05-12T15:29:41.232Z,90.90
2023-05-12T15:32:43.473Z,91.00
2023-05-12T15:35:45.669Z,91.00
2023-05-12T15:38:47.859Z,91.00
2023-05-12T15:41:53.268Z,91.10
2023-05-12T15:44:55.765Z,91.20
2023-05-12T15:47:58.318Z,91.20
2023-05-12T15:51:04.267Z,91.20
2023-05-12T15:54:08.617Z,91.20
2023-05-12T15:57:13.785Z,91.10
2023-05-12T16:00:17.589Z,91.10
2023-05-12T16:03:19.986Z,91.10
2023-05-12T16:06:22.367Z,91.20
2023-05-12T16:09:24.931Z,91.20
2023-05-12T16:12:27.263Z,91.20
2023-05-12T16:15:29.592Z,91.10
2023-05-12T16:18:32.405Z,91.20
2023-05-12T16:21:34.688Z,91.40
2023-05-12T16:24:37.757Z,91.50
2023-05-12T16:27:40.156Z,91.50
2023-05-12T16:30:42.451Z,91.50
2023-05-12T16:33:44.855Z,91.50
2023-05-12T16:36:47.436Z,91.50
2023-05-12T16:39:49.910Z,91.50
2023-05-12T16:42:53.090Z,91.50
2023-05-12T16:46:03.303Z,91.40
2023-05-12T16:49:06.196Z,91.30
2023-05-12T16:52:09.869Z,91.20
2023-05-12T16:55:13.296Z,91.10
2023-05-12T16:58:16.076Z,91.00
2023-05-12T17:01:18.953Z,91.00
2023-05-12T17:04:21.348Z,90.90
2023-05-12T17:07:24.316Z,91.00
2023-05-12T17:10:27.018Z,91.10
2023-05-12T17:13:29.249Z,91.20
2023-05-12T17:16:32.111Z,91.20
2023-05-12T17:19:35.092Z,91.10
2023-05-12T17:22:41.658Z,91.10
2023-05-12T17:25:43.902Z,91.10
2023-05-12T17:28:47.213Z,91.00
2023-05-12T17:31:49.638Z,91.00
2023-05-12T17:34:52.177Z,90.90
2023-05-12T17:37:55.766Z,90.80
2023-05-12T17:40:58.166Z,90.70
2023-05-12T17:44:00.434Z,90.70
2023-05-12T17:47:03.100Z,90.80
2023-05-12T17:50:06.105Z,90.70
2023-05-12T17:53:08.413Z,90.70
2023-05-12T17:56:11.648Z,90.70
2023-05-12T17:59:14.008Z,90.70
2023-05-12T18:02:16.254Z,90.70
2023-05-12T18:05:18.820Z,90.70
2023-05-12T18:08:21.954Z,90.70
2023-05-12T18:11:24.404Z,90.70
2023-05-12T18:14:26.744Z,90.70
2023-05-12T18:17:30.652Z,90.70
2023-05-12T18:20:33.494Z,90.70
2023-05-12T18:23:35.976Z,90.70
2023-05-12T18:26:38.179Z,90.70
2023-05-12T18:29:40.479Z,90.70
2023-05-12T18:32:42.850Z,90.60
2023-05-12T18:35:47.956Z,90.60
2023-05-12T18:38:50.217Z,90.60
2023-05-12T18:41:53.538Z,90.60
2023-05-12T18:44:56.573Z,90.70
2023-05-12T18:47:58.784Z,90.70
2023-05-12T18:51:01.631Z,90.70
2023-05-12T18:54:04.755Z,90.60
2023-05-12T18:57:07.029Z,90.70
2023-05-12T19:00:10.385Z,90.60
2023-05-12T19:03:12.767Z,90.60
2023-05-12T19:06:15.106Z,90.60
2023-05-12T19:09:17.648Z,90.60
2023-05-12T19:12:19.916Z,90.50
2023-05-12T19:15:22.402Z,90.60
2023-05-12T19:18:25.090Z,90.50
2023-05-12T19:21:28.458Z,90.50
2023-05-12T19:24:33.653Z,90.50
2023-05-12T19:27:36.107Z,90.50
2023-05-12T19:30:38.517Z,90.50
2023-05-12T19:33:41.172Z,90.40
2023-05-12T19:36:43.815Z,90.50
2023-05-12T19:39:46.482Z,90.40
2023-05-12T19:42:48.770Z,90.40
2023-05-12T19:45:51.137Z,90.40
2023-05-12T19:48:53.834Z,90.30
2023-05-12T19:51:56.080Z,90.40
2023-05-12T19:54:58.357Z,90.40
2023-05-12T19:58:02.130Z,90.30
2023-05-12T20:01:04.405Z,90.30
2023-05-12T20:04:06.739Z,90.30
2023-05-12T20:07:09.095Z,90.30
2023-05-12T20:10:11.622Z,90.30
2023-05-12T20:13:13.919Z,90.30
2023-05-12T20:16:16.489Z,90.30
2023-05-12T20:19:19.021Z,90.30
2023-05-12T20:22:22.266Z,90.30
2023-05-12T20:25:27.144Z,90.20
2023-05-12T20:28:29.696Z,90.20
2023-05-12T20:31:32.021Z,90.20
2023-05-12T20:34:34.745Z,90.20
2023-05-12T20:37:37.163Z,90.20
2023-05-12T20:40:40.722Z,90.20
2023-05-12T20:43:43.251Z,90.20
2023-05-12T20:46:45.581Z,90.20
2023-05-12T20:49:47.909Z,90.20
2023-05-12T20:52:50.501Z,90.20
2023-05-12T20:55:52.695Z,90.10
2023-05-12T20:58:55.018Z,90.10
2023-05-12T21:01:57.387Z,90.10
2023-05-12T21:04:59.688Z,90.10
2023-05-12T21:08:01.993Z,90.10
2023-05-12T21:11:12.531Z,90.10
2023-05-12T21:14:14.875Z,90.10
2023-05-12T21:17:17.624Z,90.10
2023-05-12T21:20:20.097Z,90.10
2023-05-12T21:23:22.478Z,90.00
2023-05-12T21:26:27.085Z,90.30
2023-05-12T21:29:29.566Z,90.10
2023-05-12T21:32:31.836Z,90.00
2023-05-12T21:35:34.361Z,90.30
2023-05-12T21:38:36.609Z,90.00
2023-05-12T21:41:39.181Z,90.00
2023-05-12T21:44:41.386Z,90.00
2023-05-12T21:47:43.705Z,90.00
2023-05-12T21:50:56.450Z,90.00
2023-05-12T21:53:59.197Z,90.00
2023-05-12T21:57:01.806Z,90.00
2023-05-12T22:00:05.728Z,90.00
2023-05-12T22:03:14.210Z,90.00
2023-05-12T22:06:16.784Z,90.00
2023-05-12T22:09:20.612Z,90.00
2023-05-12T22:12:22.911Z,90.00
2023-05-12T22:15:25.113Z,89.90
2023-05-12T22:18:27.691Z,90.00
2023-05-12T22:21:30.010Z,90.00
2023-05-12T22:24:32.398Z,89.80
2023-05-12T22:27:34.844Z,89.90
2023-05-12T22:30:37.179Z,90.00
2023-05-12T22:33:39.435Z,89.90
2023-05-12T22:36:41.717Z,90.00
2023-05-12T22:39:43.944Z,90.00
2023-05-12T22:42:46.260Z,90.00
2023-05-12T22:45:56.833Z,90.00
2023-05-12T22:48:59.113Z,90.00
2023-05-12T22:52:01.364Z,90.00
2023-05-12T22:55:03.761Z,90.00
2023-05-12T22:58:06.015Z,90.00
2023-05-12T23:01:08.346Z,90.00
2023-05-12T23:04:10.826Z,90.00
2023-05-12T23:07:13.073Z,90.00
2023-05-12T23:10:15.327Z,90.00
2023-05-12T23:13:17.577Z,90.00
2023-05-12T23:16:19.927Z,90.00
2023-05-12T23:19:22.214Z,90.00
2023-05-12T23:22:24.829Z,90.00
2023-05-12T23:25:27.185Z,90.30
2023-05-12T23:28:29.476Z,90.00
2023-05-12T23:31:31.791Z,90.00
2023-05-12T23:34:34.019Z,90.00
2023-05-12T23:37:36.307Z,90.00
2023-05-12T23:40:39.442Z,90.10
2023-05-12T23:43:42.504Z,90.10
2023-05-12T23:46:44.876Z,90.00
2023-05-12T23:49:47.138Z,90.10
2023-05-12T23:52:49.343Z,90.10
2023-05-12T23:55:51.648Z,90.10
2023-05-12T23:58:53.860Z,90.10
